sensor_id;sensor_type;location;lat;lon;timestamp;pressure;altitude;pressure_sealevel;temperature;humidity
16194;BME280;8204;53.582;10.080;2023-10-19T00:01:08;99925.31;;;10.44;100.00
16194;BME280;8204;53.582;10.080;2023-10-19T00:03:35;99916.97;;;10.40;100.00
16194;BME280;8204;53.582;10.080;2023-10-19T00:06:01;99912.75;;;10.39;100.00
16194;BME280;8204;53.582;10.080;2023-10-19T00:08:26;99882.13;;;10.40;100.00
16194;BME280;8204;53.582;10.080;2023-10-19T00:11:02;99882.13;;;10.40;100.00
16194;BME280;8204;53.582;10.080;2023-10-19T00:13:29;99885.41;;;10.42;100.00
16194;BME280;8204;53.582;10.080;2023-10-19T00:15:55;99881.78;;;10.43;100.00
16194;BME280;8204;53.582;10.080;2023-10-19T00:18:26;99869.69;;;10.42;100.00
16194;BME280;8204;53.582;10.080;2023-10-19T00:20:54;99866.44;;;10.40;100.00
16194;BME280;8204;53.582;10.080;2023-10-19T00:23:39;99861.66;;;10.43;100.00
16194;BME280;8204;53.582;10.080;2023-10-19T00:26:05;99865.06;;;10.44;100.00
16194;BME280;8204;53.582;10.080;2023-10-19T00:28:36;99851.19;;;10.43;100.00
16194;BME280;8204;53.582;10.080;2023-10-19T00:31:03;99856.41;;;10.43;100.00
16194;BME280;8204;53.582;10.080;2023-10-19T00:33:34;99856.59;;;10.42;100.00
16194;BME280;8204;53.582;10.080;2023-10-19T00:36:08;99840.06;;;10.41;100.00
16194;BME280;8204;53.582;10.080;2023-10-19T00:38:37;99847.75;;;10.43;100.00
16194;BME280;8204;53.582;10.080;2023-10-19T00:41:04;99837.88;;;10.45;100.00
16194;BME280;8204;53.582;10.080;2023-10-19T00:43:37;99843.13;;;10.45;100.00
16194;BME280;8204;53.582;10.080;2023-10-19T00:46:09;99842.97;;;10.46;100.00
16194;BME280;8204;53.582;10.080;2023-10-19T00:51:16;99837.88;;;10.45;100.00
16194;BME280;8204;53.582;10.080;2023-10-19T00:54:04;99830.69;;;10.47;100.00
16194;BME280;8204;53.582;10.080;2023-10-19T00:56:34;99835.13;;;10.46;100.00
16194;BME280;8204;53.582;10.080;2023-10-19T00:59:00;99835.91;;;10.47;100.00
16194;BME280;8204;53.582;10.080;2023-10-19T01:01:38;99822.81;;;10.47;100.00
16194;BME280;8204;53.582;10.080;2023-10-19T01:04:09;99819.81;;;10.50;100.00
16194;BME280;8204;53.582;10.080;2023-10-19T01:06:39;99828.69;;;10.49;100.00
16194;BME280;8204;53.582;10.080;2023-10-19T01:09:09;99831.13;;;10.50;100.00
16194;BME280;8204;53.582;10.080;2023-10-19T01:11:34;99816.41;;;10.49;100.00
16194;BME280;8204;53.582;10.080;2023-10-19T01:14:17;99802.13;;;10.52;100.00
16194;BME280;8204;53.582;10.080;2023-10-19T01:16:42;99790.84;;;10.51;100.00
16194;BME280;8204;53.582;10.080;2023-10-19T01:19:11;99783.16;;;10.50;100.00
16194;BME280;8204;53.582;10.080;2023-10-19T01:21:37;99785.78;;;10.50;100.00
16194;BME280;8204;53.582;10.080;2023-10-19T01:24:07;99779.75;;;10.49;100.00
16194;BME280;8204;53.582;10.080;2023-10-19T01:26:33;99784.00;;;10.50;100.00
16194;BME280;8204;53.582;10.080;2023-10-19T01:29:03;99773.50;;;10.50;100.00
16194;BME280;8204;53.582;10.080;2023-10-19T01:31:38;99769.06;;;10.51;100.00
16194;BME280;8204;53.582;10.080;2023-10-19T01:34:04;99764.47;;;10.53;100.00
16194;BME280;8204;53.582;10.080;2023-10-19T01:36:31;99767.88;;;10.53;100.00
16194;BME280;8204;53.582;10.080;2023-10-19T01:39:07;99760.69;;;10.55;100.00
16194;BME280;8204;53.582;10.080;2023-10-19T01:41:35;99757.25;;;10.55;100.00
16194;BME280;8204;53.582;10.080;2023-10-19T01:44:01;99758.25;;;10.54;100.00
16194;BME280;8204;53.582;10.080;2023-10-19T01:46:30;99760.88;;;10.54;100.00
16194;BME280;8204;53.582;10.080;2023-10-19T01:49:00;99749.41;;;10.55;100.00
16194;BME280;8204;53.582;10.080;2023-10-19T01:51:28;99744.31;;;10.53;100.00
16194;BME280;8204;53.582;10.080;2023-10-19T01:53:55;99735.31;;;10.56;100.00
16194;BME280;8204;53.582;10.080;2023-10-19T01:56:21;99737.94;;;10.56;100.00
16194;BME280;8204;53.582;10.080;2023-10-19T01:58:48;99739.91;;;10.54;100.00
16194;BME280;8204;53.582;10.080;2023-10-19T02:01:15;99716.97;;;10.56;100.00
16194;BME280;8204;53.582;10.080;2023-10-19T02:04:02;99724.84;;;10.56;100.00
16194;BME280;8204;53.582;10.080;2023-10-19T02:06:34;99712.53;;;10.56;100.00
16194;BME280;8204;53.582;10.080;2023-10-19T02:09:12;99723.00;;;10.56;100.00
16194;BME280;8204;53.582;10.080;2023-10-19T02:11:55;99720.59;;;10.55;100.00
16194;BME280;8204;53.582;10.080;2023-10-19T02:14:21;99723.38;;;10.53;100.00
16194;BME280;8204;53.582;10.080;2023-10-19T02:16:50;99715.69;;;10.52;100.00
16194;BME280;8204;53.582;10.080;2023-10-19T02:19:19;99712.09;;;10.53;100.00
16194;BME280;8204;53.582;10.080;2023-10-19T02:21:47;99704.88;;;10.55;100.00
16194;BME280;8204;53.582;10.080;2023-10-19T02:24:13;99694.19;;;10.56;100.00
16194;BME280;8204;53.582;10.080;2023-10-19T02:26:43;99697.63;;;10.57;100.00
16194;BME280;8204;53.582;10.080;2023-10-19T02:29:10;99691.38;;;10.58;100.00
16194;BME280;8204;53.582;10.080;2023-10-19T02:31:43;99699.09;;;10.59;100.00
16194;BME280;8204;53.582;10.080;2023-10-19T02:34:11;99688.78;;;10.58;100.00
16194;BME280;8204;53.582;10.080;2023-10-19T02:36:38;99687.59;;;10.60;100.00
16194;BME280;8204;53.582;10.080;2023-10-19T02:39:06;99693.84;;;10.59;100.00
16194;BME280;8204;53.582;10.080;2023-10-19T02:41:39;99697.47;;;10.58;100.00
16194;BME280;8204;53.582;10.080;2023-10-19T02:44:08;99701.72;;;10.59;100.00
16194;BME280;8204;53.582;10.080;2023-10-19T02:46:34;99704.75;;;10.63;100.00
16194;BME280;8204;53.582;10.080;2023-10-19T02:49:02;99702.31;;;10.61;100.00
16194;BME280;8204;53.582;10.080;2023-10-19T02:51:41;99703.16;;;10.62;100.00
16194;BME280;8204;53.582;10.080;2023-10-19T02:54:10;99704.75;;;10.63;100.00
16194;BME280;8204;53.582;10.080;2023-10-19T02:56:43;99704.75;;;10.63;100.00
16194;BME280;8204;53.582;10.080;2023-10-19T02:59:12;99697.06;;;10.61;100.00
16194;BME280;8204;53.582;10.080;2023-10-19T03:01:42;99702.75;;;10.65;100.00
16194;BME280;8204;53.582;10.080;2023-10-19T03:04:10;99696.88;;;10.63;100.00
16194;BME280;8204;53.582;10.080;2023-10-19T03:06:38;99690.66;;;10.64;100.00
16194;BME280;8204;53.582;10.080;2023-10-19T03:09:07;99682.78;;;10.64;100.00
16194;BME280;8204;53.582;10.080;2023-10-19T03:11:43;99679.00;;;10.66;100.00
16194;BME280;8204;53.582;10.080;2023-10-19T03:14:10;99691.28;;;10.66;100.00
16194;BME280;8204;53.582;10.080;2023-10-19T03:16:38;99680.81;;;10.66;100.00
16194;BME280;8204;53.582;10.080;2023-10-19T03:19:06;99682.44;;;10.67;100.00
16194;BME280;8204;53.582;10.080;2023-10-19T03:21:33;99674.59;;;10.67;100.00
16194;BME280;8204;53.582;10.080;2023-10-19T03:24:07;99675.38;;;10.67;100.00
16194;BME280;8204;53.582;10.080;2023-10-19T03:26:38;99668.94;;;10.70;100.00
16194;BME280;8204;53.582;10.080;2023-10-19T03:29:05;99679.63;;;10.68;100.00
16194;BME280;8204;53.582;10.080;2023-10-19T03:31:38;99674.38;;;10.68;100.00
16194;BME280;8204;53.582;10.080;2023-10-19T03:34:09;99669.97;;;10.69;100.00
16194;BME280;8204;53.582;10.080;2023-10-19T03:36:35;99667.81;;;10.72;100.00
16194;BME280;8204;53.582;10.080;2023-10-19T03:39:01;99668.94;;;10.70;100.00
16194;BME280;8204;53.582;10.080;2023-10-19T03:41:37;99669.34;;;10.67;100.00
16194;BME280;8204;53.582;10.080;2023-10-19T03:44:04;99663.91;;;10.68;100.00
16194;BME280;8204;53.582;10.080;2023-10-19T03:46:30;99648.19;;;10.68;100.00
16194;BME280;8204;53.582;10.080;2023-10-19T03:49:03;99626.44;;;10.68;100.00
16194;BME280;8204;53.582;10.080;2023-10-19T03:51:37;99607.69;;;10.71;100.00
16194;BME280;8204;53.582;10.080;2023-10-19T03:54:06;99593.38;;;10.67;100.00
16194;BME280;8204;53.582;10.080;2023-10-19T03:56:49;99578.66;;;10.66;100.00
16194;BME280;8204;53.582;10.080;2023-10-19T03:59:18;99558.03;;;10.63;100.00
16194;BME280;8204;53.582;10.080;2023-10-19T04:01:44;99556.44;;;10.62;100.00
16194;BME280;8204;53.582;10.080;2023-10-19T04:04:10;99549.94;;;10.58;100.00
16194;BME280;8204;53.582;10.080;2023-10-19T04:06:36;99530.19;;;10.55;100.00
16194;BME280;8204;53.582;10.080;2023-10-19T04:09:03;99518.91;;;10.55;100.00
16194;BME280;8204;53.582;10.080;2023-10-19T04:11:32;99507.16;;;10.51;100.00
16194;BME280;8204;53.582;10.080;2023-10-19T04:13:59;99488.22;;;10.49;100.00
16194;BME280;8204;53.582;10.080;2023-10-19T04:16:29;99473.72;;;10.46;100.00
16194;BME280;8204;53.582;10.080;2023-10-19T04:18:54;99463.78;;;10.42;100.00
16194;BME280;8204;53.582;10.080;2023-10-19T04:21:20;99462.97;;;10.41;100.00
16194;BME280;8204;53.582;10.080;2023-10-19T04:23:45;99451.06;;;10.39;100.00
16194;BME280;8204;53.582;10.080;2023-10-19T04:26:12;99447.81;;;10.37;100.00
16194;BME280;8204;53.582;10.080;2023-10-19T04:28:40;99432.50;;;10.34;100.00
16194;BME280;8204;53.582;10.080;2023-10-19T04:31:18;99431.69;;;10.33;100.00
16194;BME280;8204;53.582;10.080;2023-10-19T04:33:45;99416.56;;;10.29;100.00
16194;BME280;8204;53.582;10.080;2023-10-19T04:36:14;99403.47;;;10.29;100.00
16194;BME280;8204;53.582;10.080;2023-10-19T04:38:40;99398.59;;;10.26;100.00
16194;BME280;8204;53.582;10.080;2023-10-19T04:41:10;99388.50;;;10.23;100.00
16194;BME280;8204;53.582;10.080;2023-10-19T04:43:37;99388.50;;;10.23;100.00
16194;BME280;8204;53.582;10.080;2023-10-19T04:46:08;99373.97;;;10.20;100.00
16194;BME280;8204;53.582;10.080;2023-10-19T04:48:39;99376.19;;;10.17;100.00
16194;BME280;8204;53.582;10.080;2023-10-19T04:51:08;99362.66;;;10.14;100.00
16194;BME280;8204;53.582;10.080;2023-10-19T04:53:35;99360.22;;;10.12;100.00
16194;BME280;8204;53.582;10.080;2023-10-19T04:56:02;99358.59;;;10.11;100.00
16194;BME280;8204;53.582;10.080;2023-10-19T04:58:30;99347.31;;;10.11;100.00
16194;BME280;8204;53.582;10.080;2023-10-19T05:00:55;99340.66;;;10.08;100.00
16194;BME280;8204;53.582;10.080;2023-10-19T05:03:23;99318.75;;;10.09;100.00
16194;BME280;8204;53.582;10.080;2023-10-19T05:05:49;99318.09;;;10.07;100.00
16194;BME280;8204;53.582;10.080;2023-10-19T05:08:14;99304.22;;;10.07;100.00
16194;BME280;8204;53.582;10.080;2023-10-19T05:10:40;99314.69;;;10.07;100.00
16194;BME280;8204;53.582;10.080;2023-10-19T05:13:07;99303.41;;;10.06;100.00
16194;BME280;8204;53.582;10.080;2023-10-19T05:15:33;99285.28;;;10.05;100.00
16194;BME280;8204;53.582;10.080;2023-10-19T05:18:02;99282.88;;;10.03;100.00
16194;BME280;8204;53.582;10.080;2023-10-19T05:20:27;99284.44;;;10.04;100.00
16194;BME280;8204;53.582;10.080;2023-10-19T05:22:53;99271.13;;;9.99;100.00
16194;BME280;8204;53.582;10.080;2023-10-19T05:25:18;99273.94;;;9.98;100.00
16194;BME280;8204;53.582;10.080;2023-10-19T05:27:44;99276.09;;;9.94;100.00
16194;BME280;8204;53.582;10.080;2023-10-19T05:30:12;99281.53;;;9.93;100.00
16194;BME280;8204;53.582;10.080;2023-10-19T05:32:37;99268.47;;;9.93;100.00
16194;BME280;8204;53.582;10.080;2023-10-19T05:35:03;99269.25;;;9.93;100.00
16194;BME280;8204;53.582;10.080;2023-10-19T05:37:31;99254.56;;;9.92;100.00
16194;BME280;8204;53.582;10.080;2023-10-19T05:39:56;99250.16;;;9.93;100.00
16194;BME280;8204;53.582;10.080;2023-10-19T05:42:22;99242.47;;;9.91;100.00
16194;BME280;8204;53.582;10.080;2023-10-19T05:44:48;99245.28;;;9.90;100.00
16194;BME280;8204;53.582;10.080;2023-10-19T05:47:13;99251.34;;;9.90;100.00
16194;BME280;8204;53.582;10.080;2023-10-19T05:49:39;99241.66;;;9.91;100.00
16194;BME280;8204;53.582;10.080;2023-10-19T05:52:04;99232.59;;;9.87;100.00
16194;BME280;8204;53.582;10.080;2023-10-19T05:54:30;99235.38;;;9.85;100.00
16194;BME280;8204;53.582;10.080;2023-10-19T05:56:55;99238.81;;;9.86;100.00
16194;BME280;8204;53.582;10.080;2023-10-19T05:59:21;99225.94;;;9.84;100.00
16194;BME280;8204;53.582;10.080;2023-10-19T06:01:47;99241.25;;;9.87;100.00
16194;BME280;8204;53.582;10.080;2023-10-19T06:04:13;99234.38;;;9.86;100.00
16194;BME280;8204;53.582;10.080;2023-10-19T06:06:38;99231.56;;;9.88;100.00
16194;BME280;8204;53.582;10.080;2023-10-19T06:09:07;99226.34;;;9.88;100.00
16194;BME280;8204;53.582;10.080;2023-10-19T06:11:35;99223.91;;;9.86;100.00
16194;BME280;8204;53.582;10.080;2023-10-19T06:14:06;99223.72;;;9.88;100.00
16194;BME280;8204;53.582;10.080;2023-10-19T06:16:33;99211.84;;;9.85;100.00
16194;BME280;8204;53.582;10.080;2023-10-19T06:18:59;99210.03;;;9.86;100.00
16194;BME280;8204;53.582;10.080;2023-10-19T06:21:24;99210.25;;;9.84;100.00
16194;BME280;8204;53.582;10.080;2023-10-19T06:23:50;99204.19;;;9.84;100.00
16194;BME280;8204;53.582;10.080;2023-10-19T06:26:15;99207.63;;;9.84;100.00
16194;BME280;8204;53.582;10.080;2023-10-19T06:28:41;99209.41;;;9.84;100.00
16194;BME280;8204;53.582;10.080;2023-10-19T06:31:07;99220.72;;;9.84;100.00
16194;BME280;8204;53.582;10.080;2023-10-19T06:33:32;99207.44;;;9.86;100.00
16194;BME280;8204;53.582;10.080;2023-10-19T06:35:59;99207.00;;;9.82;100.00
16194;BME280;8204;53.582;10.080;2023-10-19T06:38:25;99208.00;;;9.81;100.00
16194;BME280;8204;53.582;10.080;2023-10-19T06:40:51;99210.41;;;9.83;100.00
16194;BME280;8204;53.582;10.080;2023-10-19T06:43:17;99205.00;;;9.84;100.00
16194;BME280;8204;53.582;10.080;2023-10-19T06:45:44;99214.84;;;9.82;100.00
16194;BME280;8204;53.582;10.080;2023-10-19T06:48:10;99218.25;;;9.83;100.00
16194;BME280;8204;53.582;10.080;2023-10-19T06:50:36;99221.69;;;9.83;100.00
16194;BME280;8204;53.582;10.080;2023-10-19T06:53:03;99222.69;;;9.82;100.00
16194;BME280;8204;53.582;10.080;2023-10-19T06:55:30;99220.09;;;9.82;100.00
16194;BME280;8204;53.582;10.080;2023-10-19T06:57:56;99222.50;;;9.84;100.00
16194;BME280;8204;53.582;10.080;2023-10-19T07:00:23;99213.84;;;9.83;100.00
16194;BME280;8204;53.582;10.080;2023-10-19T07:02:54;99220.72;;;9.84;100.00
16194;BME280;8204;53.582;10.080;2023-10-19T07:05:20;99219.50;;;9.87;100.00
16194;BME280;8204;53.582;10.080;2023-10-19T07:07:48;99219.50;;;9.87;100.00
16194;BME280;8204;53.582;10.080;2023-10-19T07:10:14;99213.09;;;9.89;100.00
16194;BME280;8204;53.582;10.080;2023-10-19T07:12:43;99204.63;;;9.87;100.00
16194;BME280;8204;53.582;10.080;2023-10-19T07:15:09;99204.25;;;9.90;100.00
16194;BME280;8204;53.582;10.080;2023-10-19T07:17:41;99191.75;;;9.92;100.00
16194;BME280;8204;53.582;10.080;2023-10-19T07:20:08;99198.63;;;9.93;100.00
16194;BME280;8204;53.582;10.080;2023-10-19T07:23:12;99192.59;;;9.93;100.00
16194;BME280;8204;53.582;10.080;2023-10-19T07:25:46;99198.63;;;9.93;100.00
16194;BME280;8204;53.582;10.080;2023-10-19T07:28:16;99186.53;;;9.92;100.00
16194;BME280;8204;53.582;10.080;2023-10-19T07:30:43;99189.78;;;9.94;100.00
16194;BME280;8204;53.582;10.080;2023-10-19T07:33:09;99192.38;;;9.94;100.00
16194;BME280;8204;53.582;10.080;2023-10-19T07:35:38;99196.63;;;9.95;100.00
16194;BME280;8204;53.582;10.080;2023-10-19T07:38:04;99214.94;;;9.95;100.00
16194;BME280;8204;53.582;10.080;2023-10-19T07:40:32;99226.84;;;9.98;100.00
16194;BME280;8204;53.582;10.080;2023-10-19T07:42:58;99214.75;;;9.97;100.00
16194;BME280;8204;53.582;10.080;2023-10-19T07:45:23;99216.72;;;9.95;100.00
16194;BME280;8204;53.582;10.080;2023-10-19T07:47:50;99215.94;;;9.94;100.00
16194;BME280;8204;53.582;10.080;2023-10-19T07:50:16;99204.84;;;9.92;100.00
16194;BME280;8204;53.582;10.080;2023-10-19T07:52:43;99195.19;;;9.93;100.00
16194;BME280;8204;53.582;10.080;2023-10-19T07:55:09;99196.63;;;9.95;100.00
16194;BME280;8204;53.582;10.080;2023-10-19T07:57:35;99186.81;;;9.97;100.00
16194;BME280;8204;53.582;10.080;2023-10-19T08:00:01;99161.25;;;9.99;100.00
16194;BME280;8204;53.582;10.080;2023-10-19T08:02:29;99143.34;;;10.03;100.00
16194;BME280;8204;53.582;10.080;2023-10-19T08:04:56;99136.75;;;10.07;100.00
16194;BME280;8204;53.582;10.080;2023-10-19T08:07:22;99114.00;;;10.07;100.00
16194;BME280;8204;53.582;10.080;2023-10-19T08:09:48;99122.63;;;10.08;100.00
16194;BME280;8204;53.582;10.080;2023-10-19T08:12:13;99131.69;;;10.05;100.00
16194;BME280;8204;53.582;10.080;2023-10-19T08:14:39;99133.94;;;10.08;100.00
16194;BME280;8204;53.582;10.080;2023-10-19T08:17:05;99128.50;;;10.10;100.00
16194;BME280;8204;53.582;10.080;2023-10-19T08:19:31;99122.47;;;10.09;100.00
16194;BME280;8204;53.582;10.080;2023-10-19T08:21:57;99123.69;;;10.13;100.00
16194;BME280;8204;53.582;10.080;2023-10-19T08:24:23;99129.13;;;10.12;100.00
16194;BME280;8204;53.582;10.080;2023-10-19T08:26:48;99124.50;;;10.14;100.00
16194;BME280;8204;53.582;10.080;2023-10-19T08:29:14;99115.81;;;10.13;100.00
16194;BME280;8204;53.582;10.080;2023-10-19T08:31:41;99100.94;;;10.14;100.00
16194;BME280;8204;53.582;10.080;2023-10-19T08:34:08;99106.59;;;10.17;100.00
16194;BME280;8204;53.582;10.080;2023-10-19T08:36:35;99090.69;;;10.18;100.00
16194;BME280;8204;53.582;10.080;2023-10-19T08:39:12;99088.06;;;10.18;100.00
16194;BME280;8204;53.582;10.080;2023-10-19T08:41:39;99100.75;;;10.15;100.00
16194;BME280;8204;53.582;10.080;2023-10-19T08:44:06;99108.59;;;10.15;100.00
16194;BME280;8204;53.582;10.080;2023-10-19T08:46:43;99119.69;;;10.17;100.00
16194;BME280;8204;53.582;10.080;2023-10-19T08:49:12;99119.06;;;10.15;100.00
16194;BME280;8204;53.582;10.080;2023-10-19T08:51:39;99110.22;;;10.16;100.00
16194;BME280;8204;53.582;10.080;2023-10-19T08:54:06;99110.22;;;10.16;100.00
16194;BME280;8204;53.582;10.080;2023-10-19T08:56:32;99111.22;;;10.15;100.00
16194;BME280;8204;53.582;10.080;2023-10-19T08:58:59;99109.38;;;10.16;100.00
16194;BME280;8204;53.582;10.080;2023-10-19T09:01:27;99106.59;;;10.17;100.00
16194;BME280;8204;53.582;10.080;2023-10-19T09:03:57;99109.81;;;10.19;100.00
16194;BME280;8204;53.582;10.080;2023-10-19T09:06:22;99114.84;;;10.20;100.00
16194;BME280;8204;53.582;10.080;2023-10-19T09:08:48;99109.44;;;10.22;100.00
16194;BME280;8204;53.582;10.080;2023-10-19T09:11:14;99113.47;;;10.24;100.00
16194;BME280;8204;53.582;10.080;2023-10-19T09:13:46;99109.03;;;10.25;100.00
16194;BME280;8204;53.582;10.080;2023-10-19T09:16:22;99102.59;;;10.27;100.00
16194;BME280;8204;53.582;10.080;2023-10-19T09:18:49;99102.59;;;10.27;100.00
16194;BME280;8204;53.582;10.080;2023-10-19T09:21:19;99099.78;;;10.29;100.00
16194;BME280;8204;53.582;10.080;2023-10-19T09:23:52;99096.19;;;10.30;100.00
16194;BME280;8204;53.582;10.080;2023-10-19T09:26:18;99103.00;;;10.31;100.00
16194;BME280;8204;53.582;10.080;2023-10-19T09:28:46;99112.47;;;10.32;100.00
16194;BME280;8204;53.582;10.080;2023-10-19T09:31:16;99106.25;;;10.33;100.00
16194;BME280;8204;53.582;10.080;2023-10-19T09:33:43;99099.38;;;10.32;100.00
16194;BME280;8204;53.582;10.080;2023-10-19T09:36:10;99092.16;;;10.34;100.00
16194;BME280;8204;53.582;10.080;2023-10-19T09:38:46;99111.88;;;10.30;100.00
16194;BME280;8204;53.582;10.080;2023-10-19T09:41:20;99121.72;;;10.28;100.00
16194;BME280;8204;53.582;10.080;2023-10-19T09:43:50;99130.22;;;10.30;100.00
16194;BME280;8204;53.582;10.080;2023-10-19T09:46:32;99132.00;;;10.29;100.00
16194;BME280;8204;53.582;10.080;2023-10-19T09:48:58;99128.19;;;10.32;100.00
16194;BME280;8204;53.582;10.080;2023-10-19T09:51:24;99118.34;;;10.34;100.00
16194;BME280;8204;53.582;10.080;2023-10-19T09:53:58;99096.38;;;10.35;100.00
16194;BME280;8204;53.582;10.080;2023-10-19T09:56:30;99102.63;;;10.34;100.00
16194;BME280;8204;53.582;10.080;2023-10-19T09:59:11;99116.50;;;10.34;100.00
16194;BME280;8204;53.582;10.080;2023-10-19T10:02:10;99137.28;;;10.36;100.00
16194;BME280;8204;53.582;10.080;2023-10-19T10:04:39;99123.16;;;10.37;100.00
16194;BME280;8204;53.582;10.080;2023-10-19T10:07:11;99124.59;;;10.39;100.00
16194;BME280;8204;53.582;10.080;2023-10-19T10:09:39;99111.09;;;10.42;100.00
16194;BME280;8204;53.582;10.080;2023-10-19T10:12:25;99112.50;;;10.45;100.00
16194;BME280;8204;53.582;10.080;2023-10-19T10:15:00;99106.28;;;10.46;100.00
16194;BME280;8204;53.582;10.080;2023-10-19T10:17:36;99114.75;;;10.48;100.00
16194;BME280;8204;53.582;10.080;2023-10-19T10:22:37;99121.81;;;10.54;100.00
16194;BME280;8204;53.582;10.080;2023-10-19T10:25:02;99113.97;;;10.54;100.00
16194;BME280;8204;53.582;10.080;2023-10-19T10:27:53;99117.59;;;10.53;100.00
16194;BME280;8204;53.582;10.080;2023-10-19T10:30:19;99099.03;;;10.54;100.00
16194;BME280;8204;53.582;10.080;2023-10-19T10:32:52;99095.22;;;10.57;100.00
16194;BME280;8204;53.582;10.080;2023-10-19T10:38:08;99106.53;;;10.64;100.00
16194;BME280;8204;53.582;10.080;2023-10-19T10:40:44;99107.94;;;10.66;100.00
16194;BME280;8204;53.582;10.080;2023-10-19T10:43:11;99099.06;;;10.67;100.00
16194;BME280;8204;53.582;10.080;2023-10-19T10:45:36;99093.66;;;10.69;100.00
16194;BME280;8204;53.582;10.080;2023-10-19T10:48:02;99091.63;;;10.71;100.00
16194;BME280;8204;53.582;10.080;2023-10-19T10:50:29;99092.63;;;10.70;100.00
16194;BME280;8204;53.582;10.080;2023-10-19T10:52:54;99106.75;;;10.69;100.00
16194;BME280;8204;53.582;10.080;2023-10-19T10:55:23;99132.94;;;10.69;100.00
16194;BME280;8204;53.582;10.080;2023-10-19T10:57:49;99130.72;;;10.66;100.00
16194;BME280;8204;53.582;10.080;2023-10-19T11:00:15;99134.94;;;10.67;100.00
16194;BME280;8204;53.582;10.080;2023-10-19T11:02:42;99135.53;;;10.62;100.00
16194;BME280;8204;53.582;10.080;2023-10-19T11:05:12;99120.03;;;10.61;100.00
16194;BME280;8204;53.582;10.080;2023-10-19T11:07:39;99115.38;;;10.56;100.00
16194;BME280;8204;53.582;10.080;2023-10-19T11:10:05;99125.06;;;10.56;100.00
16194;BME280;8204;53.582;10.080;2023-10-19T11:12:31;99130.28;;;10.56;100.00
16194;BME280;8204;53.582;10.080;2023-10-19T11:14:58;99117.19;;;10.56;100.00
16194;BME280;8204;53.582;10.080;2023-10-19T11:17:25;99126.84;;;10.55;100.00
16194;BME280;8204;53.582;10.080;2023-10-19T11:19:56;99117.19;;;10.56;100.00
16194;BME280;8204;53.582;10.080;2023-10-19T11:22:25;99124.81;;;10.51;100.00
16194;BME280;8204;53.582;10.080;2023-10-19T11:24:52;99139.53;;;10.52;100.00
16194;BME280;8204;53.582;10.080;2023-10-19T11:27:27;99131.69;;;10.52;100.00
16194;BME280;8204;53.582;10.080;2023-10-19T11:29:57;99140.34;;;10.52;100.00
16194;BME280;8204;53.582;10.080;2023-10-19T11:32:23;99124.03;;;10.50;100.00
16194;BME280;8204;53.582;10.080;2023-10-19T11:34:54;99127.25;;;10.52;100.00
16194;BME280;8204;53.582;10.080;2023-10-19T11:37:20;99110.72;;;10.52;100.00
16194;BME280;8204;53.582;10.080;2023-10-19T11:39:46;99105.50;;;10.52;100.00
16194;BME280;8204;53.582;10.080;2023-10-19T11:42:12;99103.88;;;10.51;100.00
16194;BME280;8204;53.582;10.080;2023-10-19T11:44:38;99099.03;;;10.48;100.00
16194;BME280;8204;53.582;10.080;2023-10-19T11:47:04;99091.41;;;10.46;100.00
16194;BME280;8204;53.582;10.080;2023-10-19T11:49:30;99078.09;;;10.48;100.00
16194;BME280;8204;53.582;10.080;2023-10-19T11:51:55;99075.47;;;10.48;100.00
16194;BME280;8204;53.582;10.080;2023-10-19T11:54:21;99067.63;;;10.48;100.00
16194;BME280;8204;53.582;10.080;2023-10-19T11:56:47;99049.28;;;10.48;100.00
16194;BME280;8204;53.582;10.080;2023-10-19T11:59:14;99049.69;;;10.45;100.00
16194;BME280;8204;53.582;10.080;2023-10-19T12:01:40;99050.69;;;10.44;100.00
16194;BME280;8204;53.582;10.080;2023-10-19T12:04:07;99038.41;;;10.44;100.00
16194;BME280;8204;53.582;10.080;2023-10-19T12:06:33;99032.97;;;10.46;100.00
16194;BME280;8204;53.582;10.080;2023-10-19T12:08:58;99041.81;;;10.45;100.00
16194;BME280;8204;53.582;10.080;2023-10-19T12:11:41;99032.34;;;10.44;100.00
16194;BME280;8204;53.582;10.080;2023-10-19T12:14:06;99030.34;;;10.46;100.00
16194;BME280;8204;53.582;10.080;2023-10-19T12:16:37;99031.34;;;10.45;100.00
16194;BME280;8204;53.582;10.080;2023-10-19T12:19:05;99018.25;;;10.45;100.00
16194;BME280;8204;53.582;10.080;2023-10-19T12:21:33;99009.19;;;10.47;100.00
16194;BME280;8204;53.582;10.080;2023-10-19T12:23:58;99005.56;;;10.48;100.00
16194;BME280;8204;53.582;10.080;2023-10-19T12:26:26;99012.63;;;10.48;100.00
16194;BME280;8204;53.582;10.080;2023-10-19T12:28:52;99011.81;;;10.47;100.00
16194;BME280;8204;53.582;10.080;2023-10-19T12:31:18;99008.19;;;10.48;100.00
16194;BME280;8204;53.582;10.080;2023-10-19T12:33:44;99006.19;;;10.50;100.00
16194;BME280;8204;53.582;10.080;2023-10-19T12:36:11;99008.59;;;10.52;100.00
16194;BME280;8204;53.582;10.080;2023-10-19T12:38:55;99017.66;;;10.49;100.00
16194;BME280;8204;53.582;10.080;2023-10-19T12:41:21;99015.84;;;10.50;100.00
16194;BME280;8204;53.582;10.080;2023-10-19T12:43:47;99017.44;;;10.51;100.00
16194;BME280;8204;53.582;10.080;2023-10-19T12:46:13;99020.06;;;10.51;100.00
16194;BME280;8204;53.582;10.080;2023-10-19T12:48:40;99021.69;;;10.52;100.00
16194;BME280;8204;53.582;10.080;2023-10-19T12:51:05;99025.72;;;10.48;100.00
16194;BME280;8204;53.582;10.080;2023-10-19T12:53:37;99015.03;;;10.49;100.00
16194;BME280;8204;53.582;10.080;2023-10-19T12:56:05;98999.13;;;10.51;100.00
16194;BME280;8204;53.582;10.080;2023-10-19T12:58:31;98985.25;;;10.50;100.00
16194;BME280;8204;53.582;10.080;2023-10-19T13:00:57;98983.41;;;10.51;100.00
16194;BME280;8204;53.582;10.080;2023-10-19T13:03:24;98976.16;;;10.53;100.00
16194;BME280;8204;53.582;10.080;2023-10-19T13:05:52;98971.72;;;10.53;100.00
16194;BME280;8204;53.582;10.080;2023-10-19T13:08:19;98979.19;;;10.56;100.00